createdAt,value
2022-09-25T00:03:56.537Z,6.38
2022-09-25T00:12:04.911Z,6.93
2022-09-25T00:20:11.205Z,6.47
2022-09-25T00:28:19.078Z,6.45
2022-09-25T00:36:24.393Z,6.45
2022-09-25T00:45:11.817Z,7.10
2022-09-25T00:53:24.160Z,5.65
2022-09-25T01:01:29.895Z,5.95
2022-09-25T01:09:38.354Z,6.43
2022-09-25T01:17:51.124Z,6.43
2022-09-25T01:26:16.662Z,6.00
2022-09-25T01:34:29.079Z,5.50
2022-09-25T01:42:40.898Z,6.00
2022-09-25T01:50:53.218Z,5.53
2022-09-25T01:59:02.574Z,5.85
2022-09-25T02:07:14.287Z,6.57
2022-09-25T02:15:23.113Z,5.13
2022-09-25T02:23:40.343Z,5.55
2022-09-25T02:31:50.123Z,5.80
2022-09-25T02:40:00.887Z,5.72
2022-09-25T02:48:14.354Z,6.55
2022-09-25T02:56:28.715Z,5.63
2022-09-25T03:04:39.051Z,5.50
2022-09-25T03:12:47.007Z,5.68
2022-09-25T03:20:52.751Z,5.32
2022-09-25T03:29:02.552Z,5.65
2022-09-25T03:37:07.909Z,5.65
2022-09-25T03:45:16.074Z,5.32
2022-09-25T03:53:21.321Z,5.72
2022-09-25T04:01:30.246Z,5.07
2022-09-25T04:09:35.636Z,6.13
2022-09-25T04:17:43.458Z,6.30
2022-09-25T04:25:49.279Z,6.00
2022-09-25T04:33:57.248Z,6.35
2022-09-25T04:42:02.474Z,5.38
2022-09-25T04:50:11.392Z,5.43
2022-09-25T04:58:16.699Z,5.95
2022-09-25T05:06:27.098Z,4.90
2022-09-25T05:14:32.416Z,5.72
2022-09-25T05:22:40.462Z,6.18
2022-09-25T05:30:45.848Z,4.50
2022-09-25T05:38:54.194Z,4.93
2022-09-25T05:46:59.480Z,5.28
2022-09-25T05:55:09.778Z,5.07
2022-09-25T06:03:15.132Z,5.28
2022-09-25T06:11:23.047Z,5.50
2022-09-25T06:19:29.381Z,5.45
2022-09-25T06:27:37.293Z,4.82
2022-09-25T06:35:45.231Z,4.55
2022-09-25T06:43:55.354Z,4.80
2022-09-25T06:52:00.758Z,5.20
2022-09-25T07:00:09.734Z,4.53
2022-09-25T07:08:16.429Z,4.78
2022-09-25T07:16:26.063Z,5.10
2022-09-25T07:24:31.455Z,3.90
2022-09-25T07:32:39.388Z,4.40
2022-09-25T07:40:44.807Z,4.25
2022-09-25T07:48:54.379Z,3.80
2022-09-25T07:57:00.681Z,3.75
2022-09-25T08:05:10.094Z,3.95
2022-09-25T08:13:17.910Z,3.83
2022-09-25T08:21:25.821Z,4.30
2022-09-25T08:29:31.171Z,3.45
2022-09-25T08:37:45.214Z,2.80
2022-09-25T08:46:04.647Z,2.80
2022-09-25T08:54:16.443Z,2.40
2022-09-25T09:02:24.903Z,2.38
2022-09-25T09:10:38.951Z,2.45
2022-09-25T09:18:45.819Z,2.30
2022-09-25T09:27:17.511Z,2.72
2022-09-25T09:35:34.259Z,3.13
2022-09-25T09:43:57.833Z,2.30
2022-09-25T09:52:10.763Z,2.53
2022-09-25T10:00:22.901Z,3.30
2022-09-25T10:08:28.456Z,2.40
2022-09-25T10:16:37.004Z,1.90
2022-09-25T10:25:06.762Z,2.50
2022-09-25T10:33:20.584Z,2.00
2022-09-25T10:41:26.555Z,2.08
2022-09-25T10:49:47.239Z,1.67
2022-09-25T10:57:52.772Z,2.67
2022-09-25T11:06:03.936Z,3.70
2022-09-25T11:14:22.664Z,2.10
2022-09-25T11:22:37.784Z,1.70
2022-09-25T11:30:48.948Z,1.90
2022-09-25T11:39:19.844Z,3.07
2022-09-25T11:47:34.220Z,2.03
2022-09-25T11:55:55.709Z,2.47
2022-09-25T12:04:24.616Z,2.97
2022-09-25T12:12:41.652Z,2.00
2022-09-25T12:20:56.125Z,2.65
2022-09-25T12:29:20.067Z,2.30
2022-09-25T12:37:43.741Z,4.15
2022-09-25T12:45:55.657Z,2.75
2022-09-25T12:54:03.646Z,2.45
2022-09-25T13:02:19.655Z,12.88
2022-09-25T13:10:30.315Z,2.50
2022-09-25T13:18:40.032Z,8.18
2022-09-25T13:26:49.393Z,5.93
2022-09-25T13:35:04.739Z,6.50
2022-09-25T13:43:24.927Z,5.20
2022-09-25T13:51:38.665Z,4.38
2022-09-25T13:59:44.064Z,5.70
2022-09-25T14:07:55.656Z,3.30
2022-09-25T14:16:04.910Z,3.58
2022-09-25T14:24:24.873Z,2.70
2022-09-25T14:32:55.015Z,3.38
2022-09-25T14:41:23.618Z,3.00
2022-09-25T14:49:32.080Z,3.03
2022-09-25T14:57:40.171Z,3.42
2022-09-25T15:05:50.590Z,4.82
2022-09-25T15:14:11.785Z,3.42
2022-09-25T15:22:23.524Z,3.72
2022-09-25T15:30:32.035Z,3.65
2022-09-25T15:38:39.133Z,3.60
2022-09-25T15:46:49.745Z,3.63
2022-09-25T15:54:55.081Z,5.30
2022-09-25T16:03:19.502Z,6.78
2022-09-25T16:11:26.783Z,4.55
2022-09-25T16:19:37.964Z,4.00
2022-09-25T16:27:47.965Z,4.15
2022-09-25T16:36:13.118Z,3.33
2022-09-25T16:44:24.578Z,4.03
2022-09-25T16:52:41.346Z,3.60
2022-09-25T17:00:52.347Z,3.65
2022-09-25T17:09:02.490Z,3.75
2022-09-25T17:17:07.793Z,4.18
2022-09-25T17:25:26.682Z,5.05
2022-09-25T17:33:33.005Z,6.40
2022-09-25T17:41:42.111Z,5.43
2022-09-25T17:49:48.674Z,5.45
2022-09-25T17:57:56.872Z,5.10
2022-09-25T18:06:02.493Z,6.93
2022-09-25T18:14:12.378Z,5.72
2022-09-25T18:22:25.427Z,5.75
2022-09-25T18:30:33.686Z,6.50
2022-09-25T18:38:38.951Z,5.85
2022-09-25T18:46:46.947Z,6.55
2022-09-25T18:54:55.391Z,7.63
2022-09-25T19:03:03.486Z,9.70
2022-09-25T19:11:16.195Z,9.63
2022-09-25T19:19:24.197Z,9.13
2022-09-25T19:27:30.555Z,10.80
2022-09-25T19:35:38.474Z,10.52
2022-09-25T19:43:43.783Z,10.30
2022-09-25T19:51:51.680Z,7.07
2022-09-25T19:59:57.182Z,6.18
2022-09-25T20:08:05.358Z,7.38
2022-09-25T20:16:11.819Z,6.80
2022-09-25T20:24:20.301Z,6.80
2022-09-25T20:32:25.672Z,6.43
2022-09-25T20:40:33.659Z,7.18
2022-09-25T20:48:40.608Z,7.05
2022-09-25T20:56:48.562Z,8.43
2022-09-25T21:04:53.854Z,7.68
2022-09-25T21:13:01.776Z,9.07
2022-09-25T21:21:09.418Z,10.48
2022-09-25T21:29:18.597Z,14.05
2022-09-25T21:37:23.886Z,13.93
2022-09-25T21:45:32.006Z,10.52
2022-09-25T21:53:38.482Z,9.27
2022-09-25T22:01:46.459Z,10.48
2022-09-25T22:09:52.105Z,11.13
2022-09-25T22:17:59.966Z,11.05
2022-09-25T22:26:05.904Z,9.63
2022-09-25T22:34:19.290Z,7.95
2022-09-25T22:42:26.690Z,8.10
2022-09-25T22:50:34.522Z,7.10
2022-09-25T22:58:39.848Z,7.10
2022-09-25T23:06:48.344Z,6.90
2022-09-25T23:14:54.153Z,6.72
2022-09-25T23:23:03.686Z,7.20
2022-09-25T23:31:11.306Z,7.50
2022-09-25T23:39:22.043Z,7.15
2022-09-25T23:47:27.333Z,5.93
2022-09-25T23:55:35.389Z,6.25
